sensor_id;sensor_type;location;lat;lon;timestamp;pressure;altitude;pressure_sealevel;temperature
12430;BMP280;6279;42.192;24.326;2023-08-31T00:01:10;98249.69;;;22.95
12430;BMP280;6279;42.192;24.326;2023-08-31T00:03:36;98242.81;;;22.94
12430;BMP280;6279;42.192;24.326;2023-08-31T00:06:02;98239.09;;;22.95
12430;BMP280;6279;42.192;24.326;2023-08-31T00:08:29;98244.41;;;22.95
12430;BMP280;6279;42.192;24.326;2023-08-31T00:10:56;98235.38;;;22.96
12430;BMP280;6279;42.192;24.326;2023-08-31T00:13:22;98239.88;;;23.01
12430;BMP280;6279;42.192;24.326;2023-08-31T00:15:47;98236.97;;;22.97
12430;BMP280;6279;42.192;24.326;2023-08-31T00:18:14;98232.72;;;22.91
12430;BMP280;6279;42.192;24.326;2023-08-31T00:20:41;98240.69;;;22.91
12430;BMP280;6279;42.192;24.326;2023-08-31T00:23:07;98245.19;;;22.91
12430;BMP280;6279;42.192;24.326;2023-08-31T00:25:32;98237.47;;;22.85
12430;BMP280;6279;42.192;24.326;2023-08-31T00:27:57;98241.72;;;22.86
12430;BMP280;6279;42.192;24.326;2023-08-31T00:30:29;98244.88;;;22.87
12430;BMP280;6279;42.192;24.326;2023-08-31T00:32:55;98252.31;;;22.81
12430;BMP280;6279;42.192;24.326;2023-08-31T00:35:25;98256.00;;;22.75
12430;BMP280;6279;42.192;24.326;2023-08-31T00:37:51;98258.94;;;22.78
12430;BMP280;6279;42.192;24.326;2023-08-31T00:40:16;98248.06;;;22.75
12430;BMP280;6279;42.192;24.326;2023-08-31T00:42:42;98254.38;;;22.69
12430;BMP280;6279;42.192;24.326;2023-08-31T00:45:08;98253.28;;;22.65
12430;BMP280;6279;42.192;24.326;2023-08-31T00:47:33;98261.69;;;22.47
12430;BMP280;6279;42.192;24.326;2023-08-31T00:49:59;98253.75;;;22.47
12430;BMP280;6279;42.192;24.326;2023-08-31T00:52:25;98259.78;;;22.33
12430;BMP280;6279;42.192;24.326;2023-08-31T00:54:51;98255.28;;;22.34
12430;BMP280;6279;42.192;24.326;2023-08-31T00:57:17;98256.03;;;22.24
12430;BMP280;6279;42.192;24.326;2023-08-31T00:59:43;98259.47;;;22.20
12430;BMP280;6279;42.192;24.326;2023-08-31T01:02:22;98261.00;;;22.11
12430;BMP280;6279;42.192;24.326;2023-08-31T01:05:15;98270.38;;;21.93
12430;BMP280;6279;42.192;24.326;2023-08-31T01:08:03;98258.88;;;21.77
12430;BMP280;6279;42.192;24.326;2023-08-31T01:10:46;98272.97;;;21.83
12430;BMP280;6279;42.192;24.326;2023-08-31T01:13:20;98272.41;;;21.81
12430;BMP280;6279;42.192;24.326;2023-08-31T01:15:51;98274.06;;;21.87
12430;BMP280;6279;42.192;24.326;2023-08-31T01:18:21;98279.81;;;21.79
12430;BMP280;6279;42.192;24.326;2023-08-31T01:23:29;98272.84;;;21.68
12430;BMP280;6279;42.192;24.326;2023-08-31T01:25:56;98277.53;;;21.61
12430;BMP280;6279;42.192;24.326;2023-08-31T01:28:23;98289.72;;;21.62
12430;BMP280;6279;42.192;24.326;2023-08-31T01:30:48;98292.19;;;21.69
12430;BMP280;6279;42.192;24.326;2023-08-31T01:36:41;98304.38;;;21.44
12430;BMP280;6279;42.192;24.326;2023-08-31T01:39:15;98299.84;;;21.39
12430;BMP280;6279;42.192;24.326;2023-08-31T01:41:45;98300.75;;;21.50
12430;BMP280;6279;42.192;24.326;2023-08-31T01:44:13;98299.69;;;21.51
12430;BMP280;6279;42.192;24.326;2023-08-31T01:46:42;98296.28;;;21.55
12430;BMP280;6279;42.192;24.326;2023-08-31T01:49:10;98305.28;;;21.54
12430;BMP280;6279;42.192;24.326;2023-08-31T01:51:35;98304.06;;;21.66
12430;BMP280;6279;42.192;24.326;2023-08-31T01:54:01;98302.25;;;21.72
12430;BMP280;6279;42.192;24.326;2023-08-31T01:56:27;98304.88;;;21.67
12430;BMP280;6279;42.192;24.326;2023-08-31T01:58:52;98317.59;;;21.70
12430;BMP280;6279;42.192;24.326;2023-08-31T02:01:17;98319.44;;;21.69
12430;BMP280;6279;42.192;24.326;2023-08-31T02:03:43;98318.38;;;21.70
12430;BMP280;6279;42.192;24.326;2023-08-31T02:06:08;98316.81;;;21.74
12430;BMP280;6279;42.192;24.326;2023-08-31T02:08:34;98317.38;;;21.76
12430;BMP280;6279;42.192;24.326;2023-08-31T02:10:59;98322.47;;;21.82
12430;BMP280;6279;42.192;24.326;2023-08-31T02:13:24;98321.59;;;21.77
12430;BMP280;6279;42.192;24.326;2023-08-31T02:15:53;98322.41;;;21.77
12430;BMP280;6279;42.192;24.326;2023-08-31T02:18:19;98317.19;;;21.82
12430;BMP280;6279;42.192;24.326;2023-08-31T02:20:44;98319.06;;;21.87
12430;BMP280;6279;42.192;24.326;2023-08-31T02:23:09;98317.50;;;21.91
12430;BMP280;6279;42.192;24.326;2023-08-31T02:25:37;98316.97;;;21.94
12430;BMP280;6279;42.192;24.326;2023-08-31T02:28:02;98319.63;;;21.94
12430;BMP280;6279;42.192;24.326;2023-08-31T02:30:28;98315.00;;;21.79
12430;BMP280;6279;42.192;24.326;2023-08-31T02:32:53;98309.13;;;21.73
12430;BMP280;6279;42.192;24.326;2023-08-31T02:35:19;98323.44;;;21.72
12430;BMP280;6279;42.192;24.326;2023-08-31T02:37:44;98330.84;;;21.75
12430;BMP280;6279;42.192;24.326;2023-08-31T02:40:10;98330.44;;;21.87
12430;BMP280;6279;42.192;24.326;2023-08-31T02:42:36;98336.00;;;21.86
12430;BMP280;6279;42.192;24.326;2023-08-31T02:45:01;98341.84;;;21.93
12430;BMP280;6279;42.192;24.326;2023-08-31T02:47:27;98350.38;;;21.95
12430;BMP280;6279;42.192;24.326;2023-08-31T02:49:53;98347.22;;;21.98
12430;BMP280;6279;42.192;24.326;2023-08-31T02:52:18;98344.28;;;21.94
12430;BMP280;6279;42.192;24.326;2023-08-31T02:54:44;98346.09;;;21.94
12430;BMP280;6279;42.192;24.326;2023-08-31T02:57:09;98349.31;;;21.96
12430;BMP280;6279;42.192;24.326;2023-08-31T02:59:35;98351.88;;;21.86
12430;BMP280;6279;42.192;24.326;2023-08-31T03:02:03;98349.94;;;21.76
12430;BMP280;6279;42.192;24.326;2023-08-31T03:04:29;98355.22;;;21.76
12430;BMP280;6279;42.192;24.326;2023-08-31T03:06:54;98356.53;;;21.74
12430;BMP280;6279;42.192;24.326;2023-08-31T03:09:20;98358.09;;;21.70
12430;BMP280;6279;42.192;24.326;2023-08-31T03:11:45;98358.25;;;21.59
12430;BMP280;6279;42.192;24.326;2023-08-31T03:14:11;98351.38;;;21.63
12430;BMP280;6279;42.192;24.326;2023-08-31T03:16:36;98352.75;;;21.65
12430;BMP280;6279;42.192;24.326;2023-08-31T03:19:02;98365.75;;;21.67
12430;BMP280;6279;42.192;24.326;2023-08-31T03:21:27;98369.19;;;21.67
12430;BMP280;6279;42.192;24.326;2023-08-31T03:23:52;98370.16;;;21.61
12430;BMP280;6279;42.192;24.326;2023-08-31T03:26:18;98366.19;;;21.59
12430;BMP280;6279;42.192;24.326;2023-08-31T03:28:43;98369.47;;;21.45
12430;BMP280;6279;42.192;24.326;2023-08-31T03:31:08;98364.44;;;21.43
12430;BMP280;6279;42.192;24.326;2023-08-31T03:33:34;98367.28;;;21.37
12430;BMP280;6279;42.192;24.326;2023-08-31T03:36:03;98366.69;;;21.30
12430;BMP280;6279;42.192;24.326;2023-08-31T03:38:32;98365.09;;;21.29
12430;BMP280;6279;42.192;24.326;2023-08-31T03:41:02;98361.88;;;21.27
12430;BMP280;6279;42.192;24.326;2023-08-31T03:43:27;98358.69;;;21.25
12430;BMP280;6279;42.192;24.326;2023-08-31T03:45:54;98372.16;;;21.24
12430;BMP280;6279;42.192;24.326;2023-08-31T03:48:21;98373.75;;;21.25
12430;BMP280;6279;42.192;24.326;2023-08-31T03:50:51;98388.84;;;21.24
12430;BMP280;6279;42.192;24.326;2023-08-31T03:53:17;98391.19;;;21.21
12430;BMP280;6279;42.192;24.326;2023-08-31T03:55:42;98387.41;;;21.17
12430;BMP280;6279;42.192;24.326;2023-08-31T03:58:08;98390.94;;;21.22
12430;BMP280;6279;42.192;24.326;2023-08-31T04:00:33;98390.94;;;21.22
12430;BMP280;6279;42.192;24.326;2023-08-31T04:02:58;98398.59;;;21.24
12430;BMP280;6279;42.192;24.326;2023-08-31T04:05:24;98405.63;;;21.34
12430;BMP280;6279;42.192;24.326;2023-08-31T04:07:49;98408.94;;;21.46
12430;BMP280;6279;42.192;24.326;2023-08-31T04:10:15;98414.69;;;21.64
12430;BMP280;6279;42.192;24.326;2023-08-31T04:12:40;98415.31;;;21.76
12430;BMP280;6279;42.192;24.326;2023-08-31T04:15:08;98411.72;;;21.87
12430;BMP280;6279;42.192;24.326;2023-08-31T04:17:34;98424.91;;;22.08
12430;BMP280;6279;42.192;24.326;2023-08-31T04:19:59;98435.28;;;22.14
12430;BMP280;6279;42.192;24.326;2023-08-31T04:22:26;98437.03;;;22.35
12430;BMP280;6279;42.192;24.326;2023-08-31T04:24:52;98440.31;;;22.51
12430;BMP280;6279;42.192;24.326;2023-08-31T04:27:18;98446.25;;;22.63
12430;BMP280;6279;42.192;24.326;2023-08-31T04:29:43;98444.56;;;22.88
12430;BMP280;6279;42.192;24.326;2023-08-31T04:32:08;98449.13;;;22.97
12430;BMP280;6279;42.192;24.326;2023-08-31T04:34:34;98450.28;;;23.16
12430;BMP280;6279;42.192;24.326;2023-08-31T04:36:59;98447.69;;;23.26
12430;BMP280;6279;42.192;24.326;2023-08-31T04:39:25;98450.09;;;23.32
12430;BMP280;6279;42.192;24.326;2023-08-31T04:41:51;98455.22;;;23.48
12430;BMP280;6279;42.192;24.326;2023-08-31T04:44:17;98459.22;;;23.51
12430;BMP280;6279;42.192;24.326;2023-08-31T04:46:42;98466.38;;;23.60
12430;BMP280;6279;42.192;24.326;2023-08-31T04:49:08;98466.97;;;23.72
12430;BMP280;6279;42.192;24.326;2023-08-31T04:51:36;98472.84;;;23.83
12430;BMP280;6279;42.192;24.326;2023-08-31T04:54:07;98474.16;;;23.91
12430;BMP280;6279;42.192;24.326;2023-08-31T04:56:33;98468.38;;;24.03
12430;BMP280;6279;42.192;24.326;2023-08-31T04:58:59;98469.97;;;24.04
12430;BMP280;6279;42.192;24.326;2023-08-31T05:01:25;98483.00;;;24.06
12430;BMP280;6279;42.192;24.326;2023-08-31T05:03:50;98474.22;;;24.05
12430;BMP280;6279;42.192;24.326;2023-08-31T05:06:15;98470.25;;;24.08
12430;BMP280;6279;42.192;24.326;2023-08-31T05:08:41;98472.09;;;24.12
12430;BMP280;6279;42.192;24.326;2023-08-31T05:11:06;98472.66;;;24.19
12430;BMP280;6279;42.192;24.326;2023-08-31T05:13:32;98481.16;;;24.41
12430;BMP280;6279;42.192;24.326;2023-08-31T05:15:57;98484.09;;;24.78
12430;BMP280;6279;42.192;24.326;2023-08-31T05:18:22;98481.06;;;25.24
12430;BMP280;6279;42.192;24.326;2023-08-31T05:20:48;98470.53;;;25.61
12430;BMP280;6279;42.192;24.326;2023-08-31T05:23:14;98472.53;;;25.84
12430;BMP280;6279;42.192;24.326;2023-08-31T05:25:46;98467.56;;;26.15
12430;BMP280;6279;42.192;24.326;2023-08-31T05:28:11;98475.13;;;26.36
12430;BMP280;6279;42.192;24.326;2023-08-31T05:30:45;98463.72;;;26.26
12430;BMP280;6279;42.192;24.326;2023-08-31T05:33:11;98473.31;;;26.27
12430;BMP280;6279;42.192;24.326;2023-08-31T05:35:36;98463.31;;;26.09
12430;BMP280;6279;42.192;24.326;2023-08-31T05:38:01;98474.06;;;25.99
12430;BMP280;6279;42.192;24.326;2023-08-31T05:40:28;98471.78;;;26.21
12430;BMP280;6279;42.192;24.326;2023-08-31T05:42:53;98472.06;;;26.52
12430;BMP280;6279;42.192;24.326;2023-08-31T05:45:19;98475.03;;;26.79
12430;BMP280;6279;42.192;24.326;2023-08-31T05:47:44;98478.25;;;26.76
12430;BMP280;6279;42.192;24.326;2023-08-31T05:50:10;98478.31;;;26.71
12430;BMP280;6279;42.192;24.326;2023-08-31T05:52:35;98491.41;;;26.95
12430;BMP280;6279;42.192;24.326;2023-08-31T05:55:00;98476.03;;;27.38
12430;BMP280;6279;42.192;24.326;2023-08-31T05:57:26;98482.00;;;27.72
12430;BMP280;6279;42.192;24.326;2023-08-31T05:59:53;98493.44;;;27.95
12430;BMP280;6279;42.192;24.326;2023-08-31T06:02:18;98485.25;;;28.23
12430;BMP280;6279;42.192;24.326;2023-08-31T06:04:43;98478.44;;;28.66
12430;BMP280;6279;42.192;24.326;2023-08-31T06:07:09;98480.09;;;28.94
12430;BMP280;6279;42.192;24.326;2023-08-31T06:09:34;98484.41;;;29.21
12430;BMP280;6279;42.192;24.326;2023-08-31T06:12:00;98480.03;;;29.78
12430;BMP280;6279;42.192;24.326;2023-08-31T06:14:25;98473.38;;;30.23
12430;BMP280;6279;42.192;24.326;2023-08-31T06:16:51;98479.84;;;30.44
12430;BMP280;6279;42.192;24.326;2023-08-31T06:19:17;98482.88;;;30.94
12430;BMP280;6279;42.192;24.326;2023-08-31T06:21:43;98489.28;;;31.44
12430;BMP280;6279;42.192;24.326;2023-08-31T06:24:08;98488.63;;;31.77
12430;BMP280;6279;42.192;24.326;2023-08-31T06:26:38;98497.81;;;31.93
12430;BMP280;6279;42.192;24.326;2023-08-31T06:29:03;98497.56;;;32.27
12430;BMP280;6279;42.192;24.326;2023-08-31T06:31:29;98496.16;;;32.38
12430;BMP280;6279;42.192;24.326;2023-08-31T06:33:54;98508.03;;;32.20
12430;BMP280;6279;42.192;24.326;2023-08-31T06:36:20;98503.47;;;32.54
12430;BMP280;6279;42.192;24.326;2023-08-31T06:38:45;98499.38;;;33.02
12430;BMP280;6279;42.192;24.326;2023-08-31T06:41:14;98510.53;;;33.45
12430;BMP280;6279;42.192;24.326;2023-08-31T06:43:40;98508.50;;;33.71
12430;BMP280;6279;42.192;24.326;2023-08-31T06:46:06;98509.91;;;34.05
12430;BMP280;6279;42.192;24.326;2023-08-31T06:48:31;98505.19;;;34.22
12430;BMP280;6279;42.192;24.326;2023-08-31T06:50:56;98502.69;;;34.57
12430;BMP280;6279;42.192;24.326;2023-08-31T06:53:22;98501.09;;;35.08
12430;BMP280;6279;42.192;24.326;2023-08-31T06:55:47;98502.25;;;35.30
12430;BMP280;6279;42.192;24.326;2023-08-31T06:58:13;98506.34;;;35.72
12430;BMP280;6279;42.192;24.326;2023-08-31T07:00:38;98503.16;;;36.05
12430;BMP280;6279;42.192;24.326;2023-08-31T07:03:04;98501.25;;;35.94
12430;BMP280;6279;42.192;24.326;2023-08-31T07:05:33;98505.16;;;36.19
12430;BMP280;6279;42.192;24.326;2023-08-31T07:08:00;98500.31;;;36.63
12430;BMP280;6279;42.192;24.326;2023-08-31T07:10:26;98501.94;;;37.07
12430;BMP280;6279;42.192;24.326;2023-08-31T07:12:52;98493.22;;;37.43
12430;BMP280;6279;42.192;24.326;2023-08-31T07:15:17;98501.53;;;37.80
12430;BMP280;6279;42.192;24.326;2023-08-31T07:17:43;98501.94;;;38.13
12430;BMP280;6279;42.192;24.326;2023-08-31T07:20:09;98510.28;;;38.23
12430;BMP280;6279;42.192;24.326;2023-08-31T07:22:34;98509.72;;;38.14
12430;BMP280;6279;42.192;24.326;2023-08-31T07:25:00;98514.03;;;38.00
12430;BMP280;6279;42.192;24.326;2023-08-31T07:27:25;98516.03;;;38.37
12430;BMP280;6279;42.192;24.326;2023-08-31T07:29:53;98520.97;;;38.84
12430;BMP280;6279;42.192;24.326;2023-08-31T07:32:19;98514.38;;;39.25
12430;BMP280;6279;42.192;24.326;2023-08-31T07:34:44;98511.47;;;39.81
12430;BMP280;6279;42.192;24.326;2023-08-31T07:37:09;98510.97;;;40.01
12430;BMP280;6279;42.192;24.326;2023-08-31T07:39:35;98506.94;;;40.42
12430;BMP280;6279;42.192;24.326;2023-08-31T07:42:01;98502.75;;;40.23
12430;BMP280;6279;42.192;24.326;2023-08-31T07:44:27;98490.84;;;40.34
12430;BMP280;6279;42.192;24.326;2023-08-31T07:46:52;98494.38;;;40.64
12430;BMP280;6279;42.192;24.326;2023-08-31T07:49:18;98490.69;;;41.17
12430;BMP280;6279;42.192;24.326;2023-08-31T07:51:44;98493.44;;;41.17
12430;BMP280;6279;42.192;24.326;2023-08-31T07:54:09;98494.34;;;41.71
12430;BMP280;6279;42.192;24.326;2023-08-31T07:56:34;98492.28;;;42.10
12430;BMP280;6279;42.192;24.326;2023-08-31T07:59:00;98483.28;;;41.60
12430;BMP280;6279;42.192;24.326;2023-08-31T08:01:25;98485.63;;;42.04
12430;BMP280;6279;42.192;24.326;2023-08-31T08:03:50;98469.69;;;43.28
12430;BMP280;6279;42.192;24.326;2023-08-31T08:06:16;98475.53;;;43.78
12430;BMP280;6279;42.192;24.326;2023-08-31T08:08:41;98477.06;;;44.16
12430;BMP280;6279;42.192;24.326;2023-08-31T08:11:07;98477.91;;;43.38
12430;BMP280;6279;42.192;24.326;2023-08-31T08:13:32;98486.44;;;42.95
12430;BMP280;6279;42.192;24.326;2023-08-31T08:15:57;98468.50;;;43.49
12430;BMP280;6279;42.192;24.326;2023-08-31T08:18:23;98467.31;;;45.03
12430;BMP280;6279;42.192;24.326;2023-08-31T08:20:50;98470.38;;;45.68
12430;BMP280;6279;42.192;24.326;2023-08-31T08:23:15;98459.41;;;46.70
12430;BMP280;6279;42.192;24.326;2023-08-31T08:25:41;98467.59;;;46.77
12430;BMP280;6279;42.192;24.326;2023-08-31T08:28:06;98460.41;;;47.12
12430;BMP280;6279;42.192;24.326;2023-08-31T08:30:32;98454.09;;;48.81
12430;BMP280;6279;42.192;24.326;2023-08-31T08:32:57;98447.38;;;48.82
12430;BMP280;6279;42.192;24.326;2023-08-31T08:35:24;98443.28;;;49.84
12430;BMP280;6279;42.192;24.326;2023-08-31T08:37:49;98451.44;;;50.47
12430;BMP280;6279;42.192;24.326;2023-08-31T08:40:15;98460.22;;;47.71
12430;BMP280;6279;42.192;24.326;2023-08-31T08:42:42;98461.47;;;46.63
12430;BMP280;6279;42.192;24.326;2023-08-31T08:45:13;98455.22;;;45.47
12430;BMP280;6279;42.192;24.326;2023-08-31T08:47:46;98450.03;;;47.45
12430;BMP280;6279;42.192;24.326;2023-08-31T08:50:12;98453.88;;;46.99
12430;BMP280;6279;42.192;24.326;2023-08-31T08:52:41;98452.38;;;45.11
12430;BMP280;6279;42.192;24.326;2023-08-31T08:55:08;98452.44;;;43.96
12430;BMP280;6279;42.192;24.326;2023-08-31T08:57:34;98446.78;;;42.48
12430;BMP280;6279;42.192;24.326;2023-08-31T08:59:59;98440.13;;;42.43
12430;BMP280;6279;42.192;24.326;2023-08-31T09:02:25;98440.03;;;44.68
12430;BMP280;6279;42.192;24.326;2023-08-31T09:04:53;98435.50;;;47.19
12430;BMP280;6279;42.192;24.326;2023-08-31T09:07:24;98433.84;;;48.88
12430;BMP280;6279;42.192;24.326;2023-08-31T09:09:53;98437.59;;;49.13
12430;BMP280;6279;42.192;24.326;2023-08-31T09:12:23;98436.41;;;49.61
12430;BMP280;6279;42.192;24.326;2023-08-31T09:15:02;98435.53;;;50.35
12430;BMP280;6279;42.192;24.326;2023-08-31T09:17:38;98430.44;;;50.33
12430;BMP280;6279;42.192;24.326;2023-08-31T09:20:04;98439.03;;;50.23
12430;BMP280;6279;42.192;24.326;2023-08-31T09:22:30;98431.38;;;50.55
12430;BMP280;6279;42.192;24.326;2023-08-31T09:24:56;98429.06;;;50.53
12430;BMP280;6279;42.192;24.326;2023-08-31T09:27:21;98431.19;;;50.34
12430;BMP280;6279;42.192;24.326;2023-08-31T09:29:48;98418.88;;;49.95
12430;BMP280;6279;42.192;24.326;2023-08-31T09:32:17;98422.41;;;47.26
12430;BMP280;6279;42.192;24.326;2023-08-31T09:34:43;98426.28;;;44.75
12430;BMP280;6279;42.192;24.326;2023-08-31T09:37:08;98420.22;;;45.94
12430;BMP280;6279;42.192;24.326;2023-08-31T09:39:39;98423.31;;;47.65
12430;BMP280;6279;42.192;24.326;2023-08-31T09:42:04;98421.63;;;48.31
12430;BMP280;6279;42.192;24.326;2023-08-31T09:44:30;98425.84;;;49.09
12430;BMP280;6279;42.192;24.326;2023-08-31T09:46:56;98421.19;;;49.21
12430;BMP280;6279;42.192;24.326;2023-08-31T09:49:23;98417.34;;;49.94
12430;BMP280;6279;42.192;24.326;2023-08-31T09:51:50;98422.00;;;47.92
12430;BMP280;6279;42.192;24.326;2023-08-31T09:54:20;98431.78;;;44.75
12430;BMP280;6279;42.192;24.326;2023-08-31T09:56:47;98422.31;;;43.00
12430;BMP280;6279;42.192;24.326;2023-08-31T09:59:14;98431.06;;;41.65
12430;BMP280;6279;42.192;24.326;2023-08-31T10:01:41;98420.47;;;41.60
12430;BMP280;6279;42.192;24.326;2023-08-31T10:04:07;98416.31;;;42.46
12430;BMP280;6279;42.192;24.326;2023-08-31T10:06:35;98409.84;;;43.64
12430;BMP280;6279;42.192;24.326;2023-08-31T10:09:02;98410.97;;;43.77
12430;BMP280;6279;42.192;24.326;2023-08-31T10:11:29;98407.00;;;44.89
12430;BMP280;6279;42.192;24.326;2023-08-31T10:13:55;98407.34;;;45.87
12430;BMP280;6279;42.192;24.326;2023-08-31T10:16:22;98405.38;;;44.95
12430;BMP280;6279;42.192;24.326;2023-08-31T10:18:50;98407.13;;;46.41
12430;BMP280;6279;42.192;24.326;2023-08-31T10:21:17;98413.22;;;47.10
12430;BMP280;6279;42.192;24.326;2023-08-31T10:23:47;98411.94;;;47.37
12430;BMP280;6279;42.192;24.326;2023-08-31T10:26:23;98408.72;;;48.98
12430;BMP280;6279;42.192;24.326;2023-08-31T10:28:48;98409.66;;;47.81
12430;BMP280;6279;42.192;24.326;2023-08-31T10:31:18;98400.19;;;45.54
12430;BMP280;6279;42.192;24.326;2023-08-31T10:33:55;98407.22;;;44.45
12430;BMP280;6279;42.192;24.326;2023-08-31T10:36:20;98405.59;;;45.64
12430;BMP280;6279;42.192;24.326;2023-08-31T10:41:38;98417.41;;;44.47
12430;BMP280;6279;42.192;24.326;2023-08-31T10:44:18;98416.25;;;44.42
12430;BMP280;6279;42.192;24.326;2023-08-31T10:46:44;98415.34;;;44.72
12430;BMP280;6279;42.192;24.326;2023-08-31T10:51:40;98417.44;;;42.39
12430;BMP280;6279;42.192;24.326;2023-08-31T10:54:12;98410.44;;;44.22
12430;BMP280;6279;42.192;24.326;2023-08-31T10:59:53;98414.91;;;43.38
12430;BMP280;6279;42.192;24.326;2023-08-31T11:05:10;98424.63;;;43.97
12430;BMP280;6279;42.192;24.326;2023-08-31T11:07:44;98416.81;;;43.78
12430;BMP280;6279;42.192;24.326;2023-08-31T11:10:20;98404.78;;;44.60
12430;BMP280;6279;42.192;24.326;2023-08-31T11:12:48;98403.06;;;44.90
12430;BMP280;6279;42.192;24.326;2023-08-31T11:15:20;98401.19;;;43.14
12430;BMP280;6279;42.192;24.326;2023-08-31T11:17:49;98400.00;;;42.88
12430;BMP280;6279;42.192;24.326;2023-08-31T11:20:16;98395.25;;;42.57
12430;BMP280;6279;42.192;24.326;2023-08-31T11:22:43;98391.22;;;42.38
12430;BMP280;6279;42.192;24.326;2023-08-31T11:25:12;98399.34;;;42.14
12430;BMP280;6279;42.192;24.326;2023-08-31T11:27:38;98393.34;;;41.88
12430;BMP280;6279;42.192;24.326;2023-08-31T11:30:11;98399.34;;;42.07
12430;BMP280;6279;42.192;24.326;2023-08-31T11:32:37;98396.72;;;41.64
12430;BMP280;6279;42.192;24.326;2023-08-31T11:35:02;98392.97;;;40.90
12430;BMP280;6279;42.192;24.326;2023-08-31T11:37:29;98389.22;;;40.69
12430;BMP280;6279;42.192;24.326;2023-08-31T11:39:54;98377.03;;;40.57
12430;BMP280;6279;42.192;24.326;2023-08-31T11:42:21;98385.28;;;40.31
12430;BMP280;6279;42.192;24.326;2023-08-31T11:44:48;98385.25;;;40.99
12430;BMP280;6279;42.192;24.326;2023-08-31T11:47:14;98384.06;;;41.39
12430;BMP280;6279;42.192;24.326;2023-08-31T11:49:43;98374.44;;;41.62
12430;BMP280;6279;42.192;24.326;2023-08-31T11:52:10;98372.88;;;42.35
12430;BMP280;6279;42.192;24.326;2023-08-31T11:54:41;98388.09;;;42.36
12430;BMP280;6279;42.192;24.326;2023-08-31T11:57:08;98379.72;;;41.98
12430;BMP280;6279;42.192;24.326;2023-08-31T11:59:35;98379.25;;;41.82
12430;BMP280;6279;42.192;24.326;2023-08-31T12:02:01;98382.97;;;41.05
12430;BMP280;6279;42.192;24.326;2023-08-31T12:04:30;98384.16;;;40.68
12430;BMP280;6279;42.192;24.326;2023-08-31T12:07:01;98373.81;;;40.16
12430;BMP280;6279;42.192;24.326;2023-08-31T12:09:30;98388.31;;;39.69
12430;BMP280;6279;42.192;24.326;2023-08-31T12:11:55;98388.75;;;38.79
12430;BMP280;6279;42.192;24.326;2023-08-31T12:14:23;98389.34;;;38.29
12430;BMP280;6279;42.192;24.326;2023-08-31T12:16:49;98388.41;;;37.54
12430;BMP280;6279;42.192;24.326;2023-08-31T12:19:16;98397.84;;;37.26
12430;BMP280;6279;42.192;24.326;2023-08-31T12:21:44;98388.94;;;36.68
12430;BMP280;6279;42.192;24.326;2023-08-31T12:24:10;98378.59;;;36.17
12430;BMP280;6279;42.192;24.326;2023-08-31T12:26:35;98382.84;;;35.91
12430;BMP280;6279;42.192;24.326;2023-08-31T12:29:01;98381.59;;;36.00
12430;BMP280;6279;42.192;24.326;2023-08-31T12:31:27;98384.22;;;36.12
12430;BMP280;6279;42.192;24.326;2023-08-31T12:33:53;98384.66;;;35.75
12430;BMP280;6279;42.192;24.326;2023-08-31T12:36:18;98381.91;;;35.60
12430;BMP280;6279;42.192;24.326;2023-08-31T12:38:44;98385.16;;;35.65
12430;BMP280;6279;42.192;24.326;2023-08-31T12:41:09;98378.75;;;35.46
12430;BMP280;6279;42.192;24.326;2023-08-31T12:43:34;98381.81;;;35.45
12430;BMP280;6279;42.192;24.326;2023-08-31T12:46:00;98378.50;;;35.51
12430;BMP280;6279;42.192;24.326;2023-08-31T12:48:26;98376.03;;;35.34
12430;BMP280;6279;42.192;24.326;2023-08-31T12:50:52;98380.00;;;35.25
12430;BMP280;6279;42.192;24.326;2023-08-31T12:53:21;98374.94;;;35.24
12430;BMP280;6279;42.192;24.326;2023-08-31T12:55:47;98374.69;;;35.05
12430;BMP280;6279;42.192;24.326;2023-08-31T12:58:12;98382.25;;;34.68
12430;BMP280;6279;42.192;24.326;2023-08-31T13:00:38;98380.00;;;34.58
12430;BMP280;6279;42.192;24.326;2023-08-31T13:03:04;98376.56;;;34.81
12430;BMP280;6279;42.192;24.326;2023-08-31T13:05:32;98379.41;;;34.96
12430;BMP280;6279;42.192;24.326;2023-08-31T13:07:57;98381.31;;;35.19
12430;BMP280;6279;42.192;24.326;2023-08-31T13:10:23;98381.22;;;35.16
12430;BMP280;6279;42.192;24.326;2023-08-31T13:12:49;98384.94;;;35.11
12430;BMP280;6279;42.192;24.326;2023-08-31T13:15:14;98387.19;;;35.09
12430;BMP280;6279;42.192;24.326;2023-08-31T13:17:40;98384.38;;;35.06
12430;BMP280;6279;42.192;24.326;2023-08-31T13:20:06;98375.03;;;35.15
12430;BMP280;6279;42.192;24.326;2023-08-31T13:22:33;98376.94;;;35.15
12430;BMP280;6279;42.192;24.326;2023-08-31T13:24:59;98384.59;;;35.01
12430;BMP280;6279;42.192;24.326;2023-08-31T13:27:24;98380.31;;;35.35
12430;BMP280;6279;42.192;24.326;2023-08-31T13:29:50;98376.59;;;35.63
12430;BMP280;6279;42.192;24.326;2023-08-31T13:32:16;98387.28;;;35.36
12430;BMP280;6279;42.192;24.326;2023-08-31T13:34:41;98380.00;;;35.25
12430;BMP280;6279;42.192;24.326;2023-08-31T13:37:07;98389.66;;;35.14
12430;BMP280;6279;42.192;24.326;2023-08-31T13:39:34;98392.94;;;34.96
12430;BMP280;6279;42.192;24.326;2023-08-31T13:42:01;98380.16;;;34.85
12430;BMP280;6279;42.192;24.326;2023-08-31T13:44:29;98387.22;;;34.66
12430;BMP280;6279;42.192;24.326;2023-08-31T13:46:54;98388.16;;;34.38
12430;BMP280;6279;42.192;24.326;2023-08-31T13:49:19;98390.78;;;34.26
12430;BMP280;6279;42.192;24.326;2023-08-31T13:51:45;98390.00;;;34.26
12430;BMP280;6279;42.192;24.326;2023-08-31T13:54:11;98393.09;;;33.96
12430;BMP280;6279;42.192;24.326;2023-08-31T13:56:36;98397.59;;;33.72
12430;BMP280;6279;42.192;24.326;2023-08-31T13:59:02;98402.78;;;33.20
12430;BMP280;6279;42.192;24.326;2023-08-31T14:01:27;98399.50;;;32.53
12430;BMP280;6279;42.192;24.326;2023-08-31T14:03:53;98404.44;;;32.35
12430;BMP280;6279;42.192;24.326;2023-08-31T14:06:18;98396.06;;;31.78
12430;BMP280;6279;42.192;24.326;2023-08-31T14:08:44;98395.59;;;31.76
12430;BMP280;6279;42.192;24.326;2023-08-31T14:11:09;98391.63;;;31.98
12430;BMP280;6279;42.192;24.326;2023-08-31T14:13:35;98393.06;;;31.96
12430;BMP280;6279;42.192;24.326;2023-08-31T14:16:00;98390.69;;;31.95
12430;BMP280;6279;42.192;24.326;2023-08-31T14:18:27;98382.00;;;31.73
12430;BMP280;6279;42.192;24.326;2023-08-31T14:20:55;98389.59;;;31.71
12430;BMP280;6279;42.192;24.326;2023-08-31T14:23:20;98398.41;;;31.63